Time;durP1;ratioP1;P1;durP2;ratioP2;P2;SDS_P1;SDS_P2;PMS_P1;PMS_P2;Temp;Humidity;BMP_temperature;BMP_pressure;BME280_temperature;BME280_humidity;BME280_pressure;Samples;Min_cycle;Max_cycle;Signal;HPM_P1;HPM_P2
2022/04/23 00:00:20;;;;;;;125.67;65.43;;;;;;;;;;5094882;28;20256;-40
2022/04/23 00:03:02;;;;;;;91.37;49.83;;;;;;;;;;5094965;28;20216;-39
2022/04/23 00:05:29;;;;;;;112.23;56.90;;;;;;;;;;5094799;28;20242;-40
2022/04/23 00:07:57;;;;;;;135.97;71.23;;;;;;;;;;5094568;28;20614;-39
2022/04/23 00:10:24;;;;;;;75.17;43.97;;;;;;;;;;5095007;28;20210;-39
2022/04/23 00:12:54;;;;;;;45.57;28.73;;;;;;;;;;5095312;28;20205;-39
2022/04/23 00:15:25;;;;;;;88.93;55.63;;;;;;;;;;5099277;28;20206;-45
2022/04/23 00:17:52;;;;;;;96.40;57.47;;;;;;;;;;5099068;28;20220;-40
2022/04/23 00:20:21;;;;;;;71.97;47.07;;;;;;;;;;5098735;28;20229;-40
2022/04/23 00:22:49;;;;;;;45.80;31.03;;;;;;;;;;5098743;28;20648;-40
2022/04/23 00:25:16;;;;;;;33.73;22.93;;;;;;;;;;5098522;28;20218;-39
2022/04/23 00:27:43;;;;;;;47.03;29.87;;;;;;;;;;5098826;28;20198;-40
2022/04/23 00:30:11;;;;;;;36.67;25.23;;;;;;;;;;5098838;28;20531;-39
2022/04/23 00:32:38;;;;;;;32.00;20.43;;;;;;;;;;5098666;28;20209;-39
2022/04/23 00:35:06;;;;;;;30.90;20.53;;;;;;;;;;5098748;28;20206;-40
2022/04/23 00:37:33;;;;;;;49.23;31.50;;;;;;;;;;5098599;28;20267;-40
2022/04/23 00:40:00;;;;;;;34.90;23.57;;;;;;;;;;5098991;28;20207;-40
2022/04/23 00:42:28;;;;;;;36.53;24.93;;;;;;;;;;5098287;28;20622;-39
2022/04/23 00:44:55;;;;;;;41.60;26.63;;;;;;;;;;5098442;28;20203;-40
2022/04/23 00:47:22;;;;;;;44.03;28.63;;;;;;;;;;5098187;28;20293;-39
2022/04/23 00:49:50;;;;;;;32.17;21.33;;;;;;;;;;5098261;28;20206;-39
2022/04/23 00:52:17;;;;;;;32.10;20.27;;;;;;;;;;5098570;28;20260;-39
2022/04/23 00:54:44;;;;;;;27.50;19.87;;;;;;;;;;5097192;28;20230;-39
2022/04/23 00:57:11;;;;;;;34.57;22.10;;;;;;;;;;5098158;28;20536;-40
2022/04/23 00:59:38;;;;;;;29.37;20.10;;;;;;;;;;5097435;28;20207;-40
2022/04/23 01:02:07;;;;;;;29.73;20.60;;;;;;;;;;5098063;28;20229;-39
2022/04/23 01:04:34;;;;;;;29.30;21.87;;;;;;;;;;5097652;28;20592;-39
2022/04/23 01:07:03;;;;;;;33.50;22.83;;;;;;;;;;5098028;28;20238;-40
2022/04/23 01:09:31;;;;;;;33.30;21.30;;;;;;;;;;5097797;28;20202;-40
2022/04/23 01:11:59;;;;;;;31.57;21.30;;;;;;;;;;5097258;28;20500;-40
2022/04/23 01:14:27;;;;;;;49.33;31.13;;;;;;;;;;5097713;28;20214;-39
2022/04/23 01:16:54;;;;;;;49.57;30.03;;;;;;;;;;5097775;28;20260;-39
2022/04/23 01:19:22;;;;;;;37.10;25.07;;;;;;;;;;5097767;28;20625;-40
2022/04/23 01:21:49;;;;;;;36.70;24.13;;;;;;;;;;5098076;28;20223;-39
2022/04/23 01:24:17;;;;;;;31.83;19.70;;;;;;;;;;5097479;28;20198;-39
2022/04/23 01:26:44;;;;;;;26.40;18.30;;;;;;;;;;5096696;28;20276;-39
2022/04/23 01:29:11;;;;;;;27.33;19.27;;;;;;;;;;5097397;28;20203;-39
2022/04/23 01:31:38;;;;;;;30.07;20.40;;;;;;;;;;5097396;28;20203;-39
2022/04/23 01:34:05;;;;;;;32.07;21.07;;;;;;;;;;5097739;28;20539;-39
2022/04/23 01:36:33;;;;;;;41.70;26.83;;;;;;;;;;5097598;28;20215;-39
2022/04/23 01:39:00;;;;;;;33.77;23.03;;;;;;;;;;5097276;28;20199;-39
2022/04/23 01:41:27;;;;;;;33.83;23.67;;;;;;;;;;5097182;28;20286;-39
2022/04/23 01:43:54;;;;;;;33.57;21.73;;;;;;;;;;5097189;28;20632;-39
2022/04/23 01:46:21;;;;;;;26.43;18.97;;;;;;;;;;5097351;28;20564;-44
2022/04/23 01:48:49;;;;;;;28.63;19.50;;;;;;;;;;5097321;28;20199;-39
2022/04/23 01:51:17;;;;;;;29.63;19.37;;;;;;;;;;5097522;28;20203;-39
2022/04/23 01:53:44;;;;;;;27.07;18.53;;;;;;;;;;5096786;28;20235;-40
2022/04/23 01:56:11;;;;;;;31.40;20.50;;;;;;;;;;5097624;28;20194;-40
2022/04/23 01:58:39;;;;;;;33.07;22.80;;;;;;;;;;5096946;28;20211;-40
2022/04/23 02:01:06;;;;;;;37.37;24.47;;;;;;;;;;5096901;28;20634;-40
2022/04/23 02:03:34;;;;;;;35.20;22.70;;;;;;;;;;5096833;28;20194;-39
2022/04/23 02:06:01;;;;;;;33.30;21.73;;;;;;;;;;5097078;28;20222;-40
2022/04/23 02:08:28;;;;;;;31.40;20.07;;;;;;;;;;5096697;28;20210;-40
2022/04/23 02:10:55;;;;;;;31.93;20.47;;;;;;;;;;5096702;28;20614;-40
2022/04/23 02:13:23;;;;;;;33.07;22.00;;;;;;;;;;5096882;28;20276;-40
2022/04/23 02:15:50;;;;;;;35.07;23.37;;;;;;;;;;5096513;28;20225;-40
2022/04/23 02:18:17;;;;;;;39.77;24.77;;;;;;;;;;5097033;28;20198;-39
2022/04/23 02:20:44;;;;;;;36.93;25.17;;;;;;;;;;5096455;28;20625;-39
2022/04/23 02:23:12;;;;;;;37.27;25.07;;;;;;;;;;5096297;28;20199;-39
2022/04/23 02:25:39;;;;;;;34.17;21.80;;;;;;;;;;5096256;28;20228;-40
2022/04/23 02:28:06;;;;;;;31.97;21.73;;;;;;;;;;5096687;28;20207;-39
2022/04/23 02:30:33;;;;;;;30.40;19.80;;;;;;;;;;5096226;28;20198;-40
2022/04/23 02:33:01;;;;;;;34.23;22.53;;;;;;;;;;5096102;28;20203;-45
2022/04/23 02:35:28;;;;;;;36.13;24.00;;;;;;;;;;5095729;28;20535;-43
2022/04/23 02:38:01;;;;;;;36.57;24.93;;;;;;;;;;5096427;28;20217;-39
2022/04/23 02:40:29;;;;;;;37.87;24.30;;;;;;;;;;5096128;28;20214;-40
2022/04/23 02:42:57;;;;;;;37.20;23.40;;;;;;;;;;5096194;28;20259;-40
2022/04/23 02:45:25;;;;;;;38.80;25.07;;;;;;;;;;5095888;28;20198;-40
2022/04/23 02:47:54;;;;;;;39.97;25.33;;;;;;;;;;5096092;28;20207;-40
2022/04/23 02:50:30;;;;;;;36.47;24.40;;;;;;;;;;5095563;28;20287;-41
2022/04/23 02:52:58;;;;;;;43.07;27.47;;;;;;;;;;5095989;28;20217;-46
2022/04/23 02:55:27;;;;;;;48.20;30.03;;;;;;;;;;5095873;28;20249;-40
2022/04/23 02:57:57;;;;;;;45.00;28.83;;;;;;;;;;5095486;28;20293;-40
2022/04/23 03:00:24;;;;;;;42.93;28.43;;;;;;;;;;5095452;28;20202;-41
2022/04/23 03:02:52;;;;;;;41.17;27.13;;;;;;;;;;5095391;28;20636;-40
2022/04/23 03:05:20;;;;;;;43.00;27.00;;;;;;;;;;5094636;28;20195;-40
2022/04/23 03:07:48;;;;;;;39.37;25.07;;;;;;;;;;5095546;28;20226;-40
2022/04/23 03:10:16;;;;;;;48.60;30.63;;;;;;;;;;5095540;28;20206;-40
2022/04/23 03:12:43;;;;;;;52.43;33.60;;;;;;;;;;5095272;28;20210;-40
2022/04/23 03:15:13;;;;;;;56.03;35.47;;;;;;;;;;5095178;28;20636;-40
2022/04/23 03:17:40;;;;;;;55.63;34.70;;;;;;;;;;5095435;28;20264;-40
2022/04/23 03:20:08;;;;;;;53.50;34.03;;;;;;;;;;5095369;28;20206;-41
2022/04/23 03:22:37;;;;;;;52.57;34.90;;;;;;;;;;5095218;28;20202;-41
2022/04/23 03:25:09;;;;;;;55.03;35.23;;;;;;;;;;5095039;28;20629;-40
2022/04/23 03:27:36;;;;;;;52.57;34.10;;;;;;;;;;5094023;28;20287;-41
2022/04/23 03:30:05;;;;;;;56.40;34.47;;;;;;;;;;5094962;28;20198;-40
2022/04/23 03:32:32;;;;;;;54.37;34.50;;;;;;;;;;5094903;28;20263;-40
2022/04/23 03:34:59;;;;;;;52.53;33.37;;;;;;;;;;5094794;28;20641;-40
2022/04/23 03:37:28;;;;;;;51.57;33.23;;;;;;;;;;5094942;28;20219;-39
2022/04/23 03:39:55;;;;;;;54.87;35.07;;;;;;;;;;5095119;28;20267;-40
2022/04/23 03:42:22;;;;;;;53.57;34.73;;;;;;;;;;5094775;28;20203;-41
2022/04/23 03:44:49;;;;;;;51.30;32.80;;;;;;;;;;5094706;28;20203;-42
2022/04/23 03:47:16;;;;;;;50.37;34.00;;;;;;;;;;5094548;28;20703;-43
2022/04/23 03:49:44;;;;;;;50.13;32.97;;;;;;;;;;5095092;28;20214;-40
2022/04/23 03:52:11;;;;;;;52.97;34.13;;;;;;;;;;5094902;28;20706;-41
2022/04/23 03:54:38;;;;;;;53.43;35.20;;;;;;;;;;5094610;28;20598;-40
2022/04/23 03:57:06;;;;;;;53.10;34.77;;;;;;;;;;5095057;28;20217;-40
2022/04/23 03:59:35;;;;;;;56.03;35.90;;;;;;;;;;5095104;28;20210;-40
2022/04/23 04:02:04;;;;;;;57.00;35.67;;;;;;;;;;5094905;28;20199;-40
2022/04/23 04:04:32;;;;;;;48.07;32.63;;;;;;;;;;5094757;28;20267;-40
2022/04/23 04:07:00;;;;;;;51.90;33.57;;;;;;;;;;5094776;28;20218;-41
2022/04/23 04:09:28;;;;;;;53.83;34.47;;;;;;;;;;5094693;28;20203;-40
2022/04/23 04:12:02;;;;;;;52.00;34.03;;;;;;;;;;5093763;28;20571;-41
2022/04/23 04:14:32;;;;;;;56.27;35.57;;;;;;;;;;5093424;28;20216;-40
2022/04/23 04:17:02;;;;;;;48.20;32.63;;;;;;;;;;5093362;28;20199;-39
2022/04/23 04:19:30;;;;;;;54.67;34.13;;;;;;;;;;5093443;28;20221;-40
2022/04/23 04:21:58;;;;;;;53.37;34.27;;;;;;;;;;5092698;28;20523;-39
2022/04/23 04:24:28;;;;;;;48.90;33.23;;;;;;;;;;5093007;28;20210;-44
2022/04/23 04:26:57;;;;;;;52.57;35.07;;;;;;;;;;5092937;28;20233;-42
2022/04/23 04:29:24;;;;;;;49.83;33.53;;;;;;;;;;5093494;28;20275;-40
2022/04/23 04:31:52;;;;;;;49.67;32.97;;;;;;;;;;5092601;28;20199;-40
2022/04/23 04:34:32;;;;;;;49.90;33.17;;;;;;;;;;5092800;28;20210;-40
2022/04/23 04:37:04;;;;;;;57.30;36.57;;;;;;;;;;5091455;28;20203;-42
2022/04/23 04:39:32;;;;;;;53.73;37.80;;;;;;;;;;5092930;28;20618;-41
2022/04/23 04:41:59;;;;;;;52.07;34.43;;;;;;;;;;5093299;28;20194;-41
2022/04/23 04:44:27;;;;;;;52.00;34.17;;;;;;;;;;5080678;28;20581;-40
2022/04/23 04:46:54;;;;;;;49.43;32.83;;;;;;;;;;5091346;28;20234;-40
2022/04/23 04:49:22;;;;;;;49.40;33.53;;;;;;;;;;5086770;28;20223;-40
2022/04/23 04:51:50;;;;;;;52.93;35.20;;;;;;;;;;5091403;28;20233;-42
2022/04/23 04:54:18;;;;;;;48.93;33.30;;;;;;;;;;5091072;28;20321;-41
2022/04/23 04:56:45;;;;;;;59.37;39.10;;;;;;;;;;5088564;28;20264;-43
2022/04/23 04:59:13;;;;;;;171.37;81.93;;;;;;;;;;5089420;28;20226;-46
2022/04/23 05:01:40;;;;;;;115.60;62.47;;;;;;;;;;5091390;28;20237;-46
2022/04/23 05:04:07;;;;;;;52.97;35.03;;;;;;;;;;5090475;28;20583;-49
2022/04/23 05:06:35;;;;;;;96.57;62.60;;;;;;;;;;5091779;28;20239;-44
2022/04/23 05:09:02;;;;;;;46.67;30.33;;;;;;;;;;5089946;28;20219;-44
2022/04/23 05:11:30;;;;;;;42.47;29.67;;;;;;;;;;5090159;28;20218;-42
2022/04/23 05:13:57;;;;;;;47.27;31.97;;;;;;;;;;5093532;28;20233;-41
2022/04/23 05:16:24;;;;;;;47.00;32.93;;;;;;;;;;5096451;28;20218;-40
2022/04/23 05:18:51;;;;;;;63.30;44.97;;;;;;;;;;5096811;28;20218;-45
2022/04/23 05:21:19;;;;;;;282.00;242.97;;;;;;;;;;5096860;28;20680;-43
2022/04/23 05:23:46;;;;;;;92.37;71.03;;;;;;;;;;5097044;28;20658;-44
2022/04/23 05:26:13;;;;;;;67.75;48.08;;;;;;;;;;5096421;28;20229;-42
2022/04/23 05:28:41;;;;;;;86.93;53.60;;;;;;;;;;5096527;28;20242;-44
2022/04/23 05:31:08;;;;;;;66.73;42.93;;;;;;;;;;5096347;28;20218;-44
2022/04/23 05:33:36;;;;;;;111.17;66.60;;;;;;;;;;5094474;28;20268;-42
2022/04/23 05:36:06;;;;;;;101.63;54.03;;;;;;;;;;5095104;28;20672;-46
2022/04/23 05:38:36;;;;;;;93.22;53.85;;;;;;;;;;5086668;28;20219;-41
2022/04/23 05:41:04;;;;;;;139.55;82.28;;;;;;;;;;5095205;28;20215;-42
2022/04/23 05:43:31;;;;;;;131.33;78.37;;;;;;;;;;5087579;28;20275;-39
2022/04/23 05:46:00;;;;;;;75.27;49.23;;;;;;;;;;5096364;28;20227;-39
2022/04/23 05:48:27;;;;;;;52.27;37.93;;;;;;;;;;5096246;28;20234;-39
2022/04/23 05:50:54;;;;;;;93.83;56.63;;;;;;;;;;5096453;28;20214;-38
2022/04/23 05:53:22;;;;;;;48.95;34.45;;;;;;;;;;5095628;28;20694;-39
2022/04/23 05:55:50;;;;;;;143.57;76.80;;;;;;;;;;5077822;28;20230;-39
2022/04/23 05:58:17;;;;;;;92.20;52.83;;;;;;;;;;5095691;28;20237;-39
2022/04/23 06:00:44;;;;;;;45.70;30.42;;;;;;;;;;5096155;28;20222;-38
2022/04/23 06:03:12;;;;;;;49.80;32.70;;;;;;;;;;5095959;28;20554;-38
2022/04/23 06:05:39;;;;;;;41.58;29.42;;;;;;;;;;5095196;28;20313;-45
2022/04/23 06:08:07;;;;;;;54.58;35.53;;;;;;;;;;5094576;28;20329;-41
2022/04/23 06:10:34;;;;;;;40.28;28.42;;;;;;;;;;5091404;28;20229;-39
2022/04/23 06:13:02;;;;;;;49.78;32.47;;;;;;;;;;5091714;28;20223;-39
2022/04/23 06:15:29;;;;;;;44.10;31.33;;;;;;;;;;5094174;28;20232;-38
2022/04/23 06:17:56;;;;;;;47.35;34.38;;;;;;;;;;5094971;28;20245;-39
2022/04/23 06:20:24;;;;;;;53.33;41.20;;;;;;;;;;5094116;28;20237;-41
2022/04/23 06:22:51;;;;;;;48.90;33.85;;;;;;;;;;5094476;28;20234;-41
2022/04/23 06:25:18;;;;;;;47.22;34.28;;;;;;;;;;5094391;28;20226;-39
2022/04/23 06:27:45;;;;;;;52.20;36.27;;;;;;;;;;5094086;28;20230;-39
2022/04/23 06:30:12;;;;;;;45.97;32.35;;;;;;;;;;5092488;28;20214;-39
2022/04/23 06:32:40;;;;;;;52.95;37.00;;;;;;;;;;5091767;28;20219;-42
2022/04/23 06:35:07;;;;;;;45.83;33.13;;;;;;;;;;5094018;28;20206;-42
2022/04/23 06:37:39;;;;;;;47.35;33.38;;;;;;;;;;5094173;28;20222;-40
2022/04/23 06:40:11;;;;;;;52.67;37.05;;;;;;;;;;5094414;28;20210;-42
2022/04/23 06:42:39;;;;;;;49.20;35.08;;;;;;;;;;5090895;28;20221;-42
2022/04/23 06:45:10;;;;;;;45.92;33.00;;;;;;;;;;5093024;28;20221;-40
2022/04/23 06:47:37;;;;;;;49.63;33.40;;;;;;;;;;5090294;28;20664;-45
2022/04/23 06:50:09;;;;;;;60.53;31.52;;;;;;;;;;5080107;28;20280;-63
2022/04/23 06:52:36;;;;;;;43.88;31.55;;;;;;;;;;5093830;28;20222;-54
2022/04/23 06:55:04;;;;;;;57.58;39.15;;;;;;;;;;5093948;28;20664;-57
2022/04/23 06:57:31;;;;;;;44.83;32.30;;;;;;;;;;5093180;28;20214;-55
2022/04/23 07:00:00;;;;;;;45.92;34.38;;;;;;;;;;5090963;28;20227;-58
2022/04/23 07:02:27;;;;;;;46.95;32.40;;;;;;;;;;5093677;28;20665;-54
2022/04/23 07:04:54;;;;;;;40.35;30.60;;;;;;;;;;5093460;28;20215;-55
2022/04/23 07:07:22;;;;;;;37.17;27.25;;;;;;;;;;5093181;28;20245;-53
2022/04/23 07:09:49;;;;;;;47.58;33.63;;;;;;;;;;5093809;28;20242;-57
2022/04/23 07:12:17;;;;;;;91.65;60.47;;;;;;;;;;5093001;28;20211;-53
2022/04/23 07:14:44;;;;;;;67.97;40.55;;;;;;;;;;5093624;28;20234;-57
2022/04/23 07:17:12;;;;;;;35.38;26.05;;;;;;;;;;5093238;28;20215;-56
2022/04/23 07:19:40;;;;;;;53.97;34.63;;;;;;;;;;5090691;28;20218;-55
2022/04/23 07:22:09;;;;;;;61.90;39.28;;;;;;;;;;5092990;28;20245;-57
2022/04/23 07:24:37;;;;;;;61.53;38.53;;;;;;;;;;5093334;28;20222;-54
2022/04/23 07:27:05;;;;;;;41.22;29.88;;;;;;;;;;5091166;28;20242;-56
2022/04/23 07:29:33;;;;;;;41.10;28.40;;;;;;;;;;5091340;28;20527;-54
2022/04/23 07:32:01;;;;;;;34.90;26.50;;;;;;;;;;5090584;28;20668;-55
2022/04/23 07:37:30;;;;;;;37.67;28.17;;;;;;;;;;5092470;28;20681;-57
2022/04/23 07:40:05;;;;;;;60.65;37.08;;;;;;;;;;5092493;28;20222;-57
2022/04/23 07:42:33;;;;;;;29.05;21.45;;;;;;;;;;5089919;28;20271;-57
2022/04/23 07:45:00;;;;;;;31.33;22.40;;;;;;;;;;5090512;28;20218;-55
2022/04/23 07:47:28;;;;;;;28.80;21.52;;;;;;;;;;5093600;28;20226;-54
2022/04/23 07:49:55;;;;;;;18.23;13.55;;;;;;;;;;5093894;28;20234;-55
2022/04/23 07:52:22;;;;;;;20.27;15.55;;;;;;;;;;5092534;28;20230;-55
2022/04/23 07:54:49;;;;;;;20.35;14.82;;;;;;;;;;5093686;28;20298;-58
2022/04/23 07:57:23;;;;;;;50.90;31.52;;;;;;;;;;5093003;28;20237;-54
2022/04/23 07:59:50;;;;;;;42.05;28.27;;;;;;;;;;5093732;28;20237;-54
2022/04/23 08:02:18;;;;;;;47.55;31.15;;;;;;;;;;5093668;28;20231;-58
2022/04/23 08:04:46;;;;;;;35.53;24.33;;;;;;;;;;5092645;28;20221;-54
2022/04/23 08:07:15;;;;;;;31.40;22.33;;;;;;;;;;5093341;28;20227;-55
2022/04/23 08:09:42;;;;;;;26.85;19.95;;;;;;;;;;5093532;28;20612;-58
2022/04/23 08:12:10;;;;;;;23.08;16.85;;;;;;;;;;5092996;28;20543;-55
2022/04/23 08:14:38;;;;;;;59.45;37.55;;;;;;;;;;5093716;28;20556;-55
2022/04/23 08:17:06;;;;;;;59.80;36.10;;;;;;;;;;5093406;28;20214;-55
2022/04/23 08:19:33;;;;;;;43.47;29.98;;;;;;;;;;5087746;28;20214;-59
2022/04/23 08:22:01;;;;;;;42.13;28.75;;;;;;;;;;5092288;28;20305;-56
2022/04/23 08:24:31;;;;;;;35.08;24.60;;;;;;;;;;5092184;28;20234;-57
2022/04/23 08:26:58;;;;;;;82.93;48.53;;;;;;;;;;5092886;28;20257;-57
2022/04/23 08:32:11;;;;;;;39.50;26.88;;;;;;;;;;5093473;28;20222;-55
2022/04/23 08:34:38;;;;;;;39.30;27.25;;;;;;;;;;5095302;28;20214;-58
2022/04/23 08:37:05;;;;;;;29.63;21.40;;;;;;;;;;5097124;28;20215;-56
2022/04/23 08:39:32;;;;;;;40.45;23.83;;;;;;;;;;5093612;28;20223;-61
2022/04/23 08:42:02;;;;;;;31.33;21.77;;;;;;;;;;5094271;28;20227;-56
2022/04/23 08:44:29;;;;;;;39.88;27.88;;;;;;;;;;5080514;28;20596;-57
2022/04/23 08:46:57;;;;;;;35.80;23.35;;;;;;;;;;5091517;28;20227;-55
2022/04/23 08:49:34;;;;;;;57.83;33.33;;;;;;;;;;5094830;28;20230;-57
2022/04/23 08:52:14;;;;;;;33.13;23.73;;;;;;;;;;5095931;28;20235;-58
2022/04/23 08:54:42;;;;;;;30.77;22.35;;;;;;;;;;5094412;28;20237;-58
2022/04/23 08:57:10;;;;;;;38.40;25.70;;;;;;;;;;5091127;28;20226;-59
2022/04/23 08:59:38;;;;;;;43.08;26.95;;;;;;;;;;5090707;28;20276;-59
2022/04/23 09:02:13;;;;;;;42.92;25.27;;;;;;;;;;5075200;28;20544;-58
2022/04/23 09:04:44;;;;;;;41.33;27.42;;;;;;;;;;5089526;28;20230;-58
2022/04/23 09:07:23;;;;;;;31.55;21.13;;;;;;;;;;5091327;28;20222;-54
2022/04/23 09:09:51;;;;;;;46.35;30.48;;;;;;;;;;5093120;28;20226;-56
2022/04/23 09:12:19;;;;;;;26.45;19.88;;;;;;;;;;5092547;28;20230;-56
2022/04/23 09:14:46;;;;;;;31.20;22.48;;;;;;;;;;5085260;28;20219;-57
2022/04/23 09:25:40;;;;;;;45.88;26.05;;;;;;;;;;5080971;28;20684;-52
2022/04/23 09:28:18;;;;;;;49.05;26.63;;;;;;;;;;5076765;28;20661;-54
2022/04/23 09:30:49;;;;;;;70.63;39.33;;;;;;;;;;5096115;28;20221;-48
2022/04/23 09:33:18;;;;;;;18.90;14.00;;;;;;;;;;5084736;28;20211;-53
2022/04/23 09:35:59;;;;;;;49.25;30.50;;;;;;;;;;5076603;28;20709;-54
2022/04/23 09:38:27;;;;;;;20.60;15.50;;;;;;;;;;5076086;28;20552;-50
2022/04/23 09:41:17;;;;;;;27.05;19.42;;;;;;;;;;5093071;28;20229;-49
2022/04/23 09:43:48;;;;;;;17.42;14.13;;;;;;;;;;5085509;28;20231;-51
2022/04/23 09:46:15;;;;;;;17.58;11.93;;;;;;;;;;5090143;28;20541;-47
2022/04/23 09:48:43;;;;;;;13.65;11.50;;;;;;;;;;5094642;28;20647;-46
2022/04/23 09:51:24;;;;;;;14.20;10.90;;;;;;;;;;5096022;28;20223;-50
2022/04/23 09:53:54;;;;;;;9.10;8.13;;;;;;;;;;5096262;28;20252;-48
2022/04/23 09:56:23;;;;;;;7.75;6.15;;;;;;;;;;5094335;28;20770;-47
2022/04/23 09:58:53;;;;;;;4.60;3.78;;;;;;;;;;5094356;28;20292;-46
2022/04/23 10:01:23;;;;;;;4.30;3.90;;;;;;;;;;5073734;28;20258;-47
2022/04/23 10:03:54;;;;;;;4.03;3.45;;;;;;;;;;5090814;28;20226;-47
2022/04/23 10:06:23;;;;;;;5.00;4.50;;;;;;;;;;5094855;28;20672;-49
2022/04/23 10:08:59;;;;;;;5.57;4.90;;;;;;;;;;5094913;28;20324;-49
2022/04/23 10:11:29;;;;;;;10.27;6.75;;;;;;;;;;5094392;28;20218;-47
2022/04/23 10:14:03;;;;;;;5.13;4.63;;;;;;;;;;5095197;28;20668;-47
2022/04/23 10:16:31;;;;;;;5.40;4.80;;;;;;;;;;5094937;28;20549;-49
2022/04/23 10:18:59;;;;;;;6.15;5.03;;;;;;;;;;5094888;28;20677;-52
2022/04/23 10:22:07;;;;;;;5.18;4.68;;;;;;;;;;5094480;28;20226;-54
2022/04/23 10:24:53;;;;;;;6.47;5.82;;;;;;;;;;5095074;28;20218;-47
2022/04/23 10:27:25;;;;;;;5.95;5.35;;;;;;;;;;5094408;28;20223;-48
2022/04/23 10:29:55;;;;;;;7.03;4.30;;;;;;;;;;5094595;28;20624;-47
2022/04/23 10:32:22;;;;;;;4.28;3.75;;;;;;;;;;5094504;28;20227;-47
2022/04/23 10:34:50;;;;;;;4.55;4.00;;;;;;;;;;5093565;28;20226;-49
2022/04/23 10:37:25;;;;;;;4.68;4.18;;;;;;;;;;5094528;28;20228;-47
2022/04/23 10:39:52;;;;;;;4.25;3.85;;;;;;;;;;5094537;28;20376;-47
2022/04/23 10:42:21;;;;;;;4.45;4.05;;;;;;;;;;5094365;28;20218;-47
2022/04/23 10:44:50;;;;;;;4.82;4.00;;;;;;;;;;5094546;28;20245;-51
2022/04/23 10:47:28;;;;;;;4.82;3.60;;;;;;;;;;5093910;28;20665;-46
2022/04/23 10:50:13;;;;;;;3.53;3.22;;;;;;;;;;5094710;28;20547;-48
2022/04/23 10:52:41;;;;;;;3.95;3.55;;;;;;;;;;5093784;28;20229;-50
2022/04/23 10:55:10;;;;;;;6.10;3.97;;;;;;;;;;5070935;28;351051;-48
2022/04/23 10:57:41;;;;;;;6.40;4.93;;;;;;;;;;5084122;28;20223;-49
2022/04/23 11:00:13;;;;;;;5.55;4.20;;;;;;;;;;5085589;28;20238;-47
2022/04/23 11:02:46;;;;;;;5.07;4.57;;;;;;;;;;5074333;28;20251;-54
2022/04/23 11:14:36;;;;;;;5.13;4.15;;;;;;;;;;5084277;28;20223;-50
2022/04/23 11:17:04;;;;;;;4.25;3.85;;;;;;;;;;5083927;28;20226;-53
2022/04/23 11:19:32;;;;;;;6.43;4.55;;;;;;;;;;5080624;28;20317;-54
2022/04/23 11:21:59;;;;;;;6.80;4.80;;;;;;;;;;5075060;28;20219;-50
2022/04/23 11:24:26;;;;;;;4.80;4.30;;;;;;;;;;5083832;28;20211;-47
2022/04/23 11:26:55;;;;;;;5.07;4.18;;;;;;;;;;5089557;28;20234;-48
2022/04/23 11:29:25;;;;;;;4.65;4.20;;;;;;;;;;5089493;28;20765;-53
2022/04/23 11:31:57;;;;;;;5.03;4.53;;;;;;;;;;5087825;28;20233;-48
2022/04/23 11:34:26;;;;;;;4.35;3.95;;;;;;;;;;5086038;28;20222;-52
2022/04/23 11:36:54;;;;;;;5.28;4.78;;;;;;;;;;5090198;28;20231;-48
2022/04/23 11:39:27;;;;;;;7.40;4.30;;;;;;;;;;5086076;28;20779;-50
2022/04/23 11:41:55;;;;;;;5.72;4.43;;;;;;;;;;5077179;28;20612;-50
2022/04/23 11:47:11;;;;;;;5.65;4.13;;;;;;;;;;5083509;28;20244;-51
2022/04/23 11:49:38;;;;;;;6.82;5.30;;;;;;;;;;5082529;28;20313;-55
2022/04/23 11:52:12;;;;;;;7.13;4.63;;;;;;;;;;5085783;28;20227;-57
2022/04/23 11:54:41;;;;;;;3.92;3.60;;;;;;;;;;5088157;28;20241;-55
2022/04/23 11:57:14;;;;;;;3.38;3.08;;;;;;;;;;5091867;28;20283;-53
2022/04/23 11:59:42;;;;;;;5.20;3.42;;;;;;;;;;5084165;28;20254;-53
2022/04/23 12:02:24;;;;;;;3.80;3.00;;;;;;;;;;5087733;28;20228;-53
2022/04/23 12:04:57;;;;;;;2.78;2.53;;;;;;;;;;5086557;28;20649;-52
2022/04/23 12:07:26;;;;;;;3.10;2.80;;;;;;;;;;5087420;28;21203;-56
2022/04/23 12:09:54;;;;;;;3.22;2.47;;;;;;;;;;5086833;28;20257;-54
2022/04/23 12:12:22;;;;;;;3.00;2.47;;;;;;;;;;5088335;28;20215;-54
2022/04/23 12:14:58;;;;;;;3.70;2.90;;;;;;;;;;5089427;28;20225;-52
2022/04/23 12:17:29;;;;;;;3.20;2.90;;;;;;;;;;5082224;28;20684;-54
2022/04/23 12:19:58;;;;;;;3.10;2.80;;;;;;;;;;5087342;28;20214;-53
2022/04/23 12:22:33;;;;;;;2.50;2.30;;;;;;;;;;5085028;28;20214;-55
2022/04/23 12:25:21;;;;;;;2.53;2.33;;;;;;;;;;5085823;28;20229;-54
2022/04/23 12:28:02;;;;;;;3.58;2.95;;;;;;;;;;5082935;28;20241;-51
2022/04/23 12:42:06;;;;;;;5.18;3.38;;;;;;;;;;5087846;28;20650;-55
2022/04/23 12:44:41;;;;;;;5.15;3.15;;;;;;;;;;5092695;28;20508;-54
2022/04/23 12:47:10;;;;;;;18.42;9.82;;;;;;;;;;5084734;28;20199;-53
2022/04/23 12:49:50;;;;;;;4.43;3.20;;;;;;;;;;5086928;28;20226;-52
2022/04/23 12:52:23;;;;;;;3.95;3.30;;;;;;;;;;5087220;28;20672;-52
2022/04/23 12:55:22;;;;;;;3.92;3.50;;;;;;;;;;5082731;28;20253;-54
2022/04/23 12:57:54;;;;;;;71.30;34.40;;;;;;;;;;5084918;28;20317;-53
2022/04/23 13:00:25;;;;;;;4.90;3.92;;;;;;;;;;5087588;28;20233;-54
2022/04/23 13:02:57;;;;;;;4.43;3.53;;;;;;;;;;5085869;28;20665;-52
2022/04/23 13:05:26;;;;;;;3.78;2.70;;;;;;;;;;5085645;28;20238;-52
2022/04/23 13:10:39;;;;;;;3.30;3.00;;;;;;;;;;5091960;28;20207;-54
2022/04/23 13:13:07;;;;;;;3.40;3.10;;;;;;;;;;5082948;28;20191;-52
2022/04/23 13:15:35;;;;;;;142.30;66.80;;;;;;;;;;5084892;28;20202;-54
2022/04/23 13:18:04;;;;;;;52.13;26.00;;;;;;;;;;5085464;28;20199;-55
2022/04/23 13:20:31;;;;;;;7.00;4.72;;;;;;;;;;5090376;28;20218;-50
2022/04/23 13:22:59;;;;;;;37.70;5.40;;;;;;;;;;5086279;28;20203;-53
2022/04/23 13:25:29;;;;;;;30.85;16.52;;;;;;;;;;5091505;28;20206;-50
2022/04/23 13:27:56;;;;;;;2.70;2.50;;;;;;;;;;5089652;28;20203;-54
2022/04/23 13:30:23;;;;;;;16.50;8.85;;;;;;;;;;5089211;28;20218;-53
2022/04/23 13:32:50;;;;;;;2.50;2.30;;;;;;;;;;5087221;28;20204;-52
2022/04/23 13:35:20;;;;;;;5.90;3.70;;;;;;;;;;5093482;28;20652;-54
2022/04/23 13:37:47;;;;;;;3.30;2.88;;;;;;;;;;5097006;28;20252;-50
2022/04/23 13:40:14;;;;;;;5.35;2.92;;;;;;;;;;5096467;28;20672;-52
2022/04/23 13:42:43;;;;;;;7.95;4.03;;;;;;;;;;5097092;28;20260;-53
2022/04/23 13:45:13;;;;;;;2.50;2.30;;;;;;;;;;5092048;28;20202;-52
2022/04/23 13:47:41;;;;;;;11.70;5.90;;;;;;;;;;5085774;28;20183;-53
2022/04/23 13:50:09;;;;;;;44.47;20.80;;;;;;;;;;5088943;28;20231;-52
2022/04/23 13:52:36;;;;;;;5.80;3.40;;;;;;;;;;5094808;28;20229;-50
2022/04/23 13:55:04;;;;;;;4.55;2.88;;;;;;;;;;5095854;28;20238;-55
2022/04/23 13:57:31;;;;;;;4.50;3.10;;;;;;;;;;5095329;28;20595;-51
2022/04/23 13:59:58;;;;;;;3.22;2.47;;;;;;;;;;5093312;28;20230;-53
2022/04/23 14:10:43;;;;;;;4.50;3.33;;;;;;;;;;5075832;28;20238;-51
2022/04/23 14:13:10;;;;;;;4.45;3.30;;;;;;;;;;5079546;28;20226;-52
2022/04/23 14:15:37;;;;;;;3.45;2.33;;;;;;;;;;5094785;28;20230;-53
2022/04/23 14:18:06;;;;;;;31.63;13.55;;;;;;;;;;5095275;28;20705;-50
2022/04/23 14:20:33;;;;;;;6.35;3.35;;;;;;;;;;5095144;28;20235;-51
2022/04/23 14:23:01;;;;;;;2.63;2.10;;;;;;;;;;5095386;28;20284;-50
2022/04/23 14:25:33;;;;;;;2.42;2.10;;;;;;;;;;5089166;28;20219;-53
2022/04/23 14:28:01;;;;;;;4.38;3.08;;;;;;;;;;5083087;28;20223;-51
2022/04/23 14:30:29;;;;;;;9.68;4.70;;;;;;;;;;5080580;28;20242;-53
2022/04/23 14:32:56;;;;;;;7.97;3.85;;;;;;;;;;5073681;28;20302;-47
2022/04/23 14:35:24;;;;;;;3.47;2.58;;;;;;;;;;5086368;28;20235;-47
2022/04/23 14:37:51;;;;;;;4.85;2.55;;;;;;;;;;5085058;28;20711;-48
2022/04/23 14:40:21;;;;;;;2.38;2.13;;;;;;;;;;5082463;28;20218;-49
2022/04/23 14:42:51;;;;;;;3.72;2.38;;;;;;;;;;5083718;28;20229;-48
2022/04/23 14:45:18;;;;;;;3.17;2.30;;;;;;;;;;5088169;28;20227;-49
2022/04/23 14:47:46;;;;;;;3.20;2.55;;;;;;;;;;5083232;28;20267;-48
2022/04/23 14:50:14;;;;;;;56.85;25.10;;;;;;;;;;5084895;28;20279;-49
2022/04/23 14:55:32;;;;;;;4.78;2.85;;;;;;;;;;5095117;28;20235;-47
2022/04/23 14:58:00;;;;;;;3.67;2.50;;;;;;;;;;5095267;28;20233;-46
2022/04/23 15:00:27;;;;;;;56.05;22.92;;;;;;;;;;5094614;28;20218;-46
2022/04/23 15:02:56;;;;;;;90.68;39.42;;;;;;;;;;5094595;28;20219;-47
2022/04/23 15:05:24;;;;;;;10.95;5.45;;;;;;;;;;5089531;28;20230;-54
2022/04/23 15:07:51;;;;;;;4.57;2.75;;;;;;;;;;5081670;28;20223;-48
2022/04/23 15:10:19;;;;;;;3.53;2.50;;;;;;;;;;5074748;28;20570;-50
2022/04/23 15:12:47;;;;;;;26.02;11.85;;;;;;;;;;5084081;28;20207;-48
2022/04/23 15:15:14;;;;;;;56.22;22.90;;;;;;;;;;5089942;28;20219;-52
2022/04/23 15:17:44;;;;;;;5.45;3.45;;;;;;;;;;5077394;28;20268;-48
2022/04/23 15:20:13;;;;;;;6.05;4.15;;;;;;;;;;5083928;28;20216;-50
2022/04/23 15:22:40;;;;;;;18.75;10.18;;;;;;;;;;5073905;28;20219;-48
2022/04/23 15:25:10;;;;;;;6.45;2.65;;;;;;;;;;5077743;28;20650;-47